Time;durP1;ratioP1;P1;durP2;ratioP2;P2;SDS_P1;SDS_P2;PMS_P1;PMS_P2;Temp;Humidity;BMP_temperature;BMP_pressure;BME280_temperature;BME280_humidity;BME280_pressure;Samples;Min_cycle;Max_cycle;Signal;HPM_P1;HPM_P2
2023/07/22 00:01:58;;;;;;;;;;;;;;;;;;6178167;28;20427;-67
2023/07/22 00:04:58;;;;;;;1.60;1.48;;;;;;;;;;6177744;28;19924;-67
2023/07/22 00:07:58;;;;;;;;;;;;;;;;;;6192005;28;20363;-66
2023/07/22 00:10:59;;;;;;;1.73;1.50;;;;;;;;;;6182456;28;19979;-66
2023/07/22 00:13:59;;;;;;;;;;;;;;;;;;6189135;28;20121;-67
2023/07/22 00:16:59;;;;;;;3.28;1.80;;;;;;;;;;6188624;28;19910;-66
2023/07/22 00:20:00;;;;;;;;;;;;;;;;;;6178858;28;20050;-66
2023/07/22 00:23:00;;;;;;;2.05;1.80;;;;;;;;;;6175183;28;19913;-67
2023/07/22 00:26:00;;;;;;;;;;;;;;;;;;6192017;28;20022;-68
2023/07/22 00:29:00;;;;;;;2.25;1.90;;;;;;;;;;6181120;28;19910;-66
2023/07/22 00:32:00;;;;;;;;;;;;;;;;;;6178183;28;20125;-68
2023/07/22 00:35:01;;;;;;;2.63;1.92;;;;;;;;;;6181609;28;19914;-70
2023/07/22 00:38:01;;;;;;;;;;;;;;;;;;6181310;28;20597;-67
2023/07/22 00:41:04;;;;;;;1.98;1.55;;;;;;;;;;6182400;28;19988;-67
2023/07/22 00:44:04;;;;;;;1.83;1.65;;;;;;;;;;6179730;28;20137;-69
2023/07/22 00:47:04;;;;;;;;;;;;;;;;;;6184537;28;20029;-70
2023/07/22 00:50:06;;;;;;;2.42;1.58;;;;;;;;;;6182036;28;19920;-69
2023/07/22 00:53:06;;;;;;;2.42;1.63;;;;;;;;;;6190660;28;20576;-68
2023/07/22 00:56:06;;;;;;;;;;;;;;;;;;6179805;28;20034;-68
2023/07/22 00:59:07;;;;;;;1.60;1.48;;;;;;;;;;6174793;28;20341;-67
2023/07/22 01:02:07;;;;;;;;;;;;;;;;;;6178283;28;21913;-67
2023/07/22 01:05:10;;;;;;;1.73;1.45;;;;;;;;;;6178398;28;19913;-67
2023/07/22 01:08:10;;;;;;;1.95;1.70;;;;;;;;;;6177070;28;20023;-68
2023/07/22 01:11:10;;;;;;;;;;;;;;;;;;6173476;28;20164;-68
2023/07/22 01:14:10;;;;;;;1.50;1.35;;;;;;;;;;6175977;28;19921;-69
2023/07/22 01:17:11;;;;;;;;;;;;;;;;;;6182205;28;20628;-68
2023/07/22 01:20:11;;;;;;;1.50;1.40;;;;;;;;;;6178416;28;20365;-68
2023/07/22 01:23:11;;;;;;;;;;;;;;;;;;6178566;28;20757;-67
2023/07/22 01:26:12;;;;;;;1.95;1.42;;;;;;;;;;6178723;28;20400;-68
2023/07/22 01:29:12;;;;;;;;;;;;;;;;;;6178548;28;20038;-68
2023/07/22 01:32:12;;;;;;;2.25;1.48;;;;;;;;;;6179952;28;20534;-67
2023/07/22 01:35:13;;;;;;;;;;;;;;;;;;6176229;28;20107;-68
2023/07/22 01:38:13;;;;;;;1.50;1.25;;;;;;;;;;6179136;28;19922;-68
2023/07/22 01:41:13;;;;;;;;;;;;;;;;;;6178561;28;20118;-67
2023/07/22 01:44:14;;;;;;;1.50;1.40;;;;;;;;;;6179111;28;20020;-69
2023/07/22 01:47:14;;;;;;;;;;;;;;;;;;6175546;28;20027;-67
2023/07/22 01:50:14;;;;;;;1.52;1.35;;;;;;;;;;6180367;28;19918;-68
2023/07/22 01:53:14;;;;;;;;;;;;;;;;;;6178572;28;20136;-68
2023/07/22 01:56:16;;;;;;;1.88;1.17;;;;;;;;;;6192821;28;20345;-69
2023/07/22 01:59:16;;;;;;;1.73;1.50;;;;;;;;;;6179244;28;20014;-70
2023/07/22 02:02:16;;;;;;;;;;;;;;;;;;6182455;28;20109;-68
2023/07/22 02:05:16;;;;;;;1.70;1.50;;;;;;;;;;6177360;28;19925;-69
2023/07/22 02:08:17;;;;;;;;;;;;;;;;;;6181294;28;20157;-69
2023/07/22 02:11:17;;;;;;;2.20;1.38;;;;;;;;;;6179126;28;20294;-69
2023/07/22 02:14:17;;;;;;;;;;;;;;;;;;6181754;28;20411;-67
2023/07/22 02:17:18;;;;;;;1.98;1.42;;;;;;;;;;6180232;28;20331;-68
2023/07/22 02:20:18;;;;;;;;;;;;;;;;;;6178784;28;20244;-69
2023/07/22 02:23:18;;;;;;;2.15;1.20;;;;;;;;;;6177815;28;19917;-68
2023/07/22 02:26:19;;;;;;;;;;;;;;;;;;6179003;28;20022;-69
2023/07/22 02:29:22;;;;;;;1.92;1.23;;;;;;;;;;6174915;28;19918;-67
2023/07/22 02:32:22;;;;;;;1.65;1.40;;;;;;;;;;6176551;28;20113;-66
2023/07/22 02:35:22;;;;;;;;;;;;;;;;;;6170657;28;20026;-69
2023/07/22 02:38:22;;;;;;;1.48;1.20;;;;;;;;;;6175348;28;19914;-66
2023/07/22 02:41:22;;;;;;;;;;;;;;;;;;6180259;28;20072;-67
2023/07/22 02:44:23;;;;;;;1.50;1.02;;;;;;;;;;6176527;28;19910;-68
2023/07/22 02:47:23;;;;;;;;;;;;;;;;;;6172407;28;20031;-67
2023/07/22 02:50:23;;;;;;;2.17;1.08;;;;;;;;;;6176349;28;19913;-67
2023/07/22 02:53:23;;;;;;;;;;;;;;;;;;6175452;28;20030;-68
2023/07/22 02:56:23;;;;;;;1.52;1.23;;;;;;;;;;6174825;28;19918;-68
2023/07/22 02:59:24;;;;;;;;;;;;;;;;;;6176101;28;20118;-68
2023/07/22 03:02:24;;;;;;;1.25;1.05;;;;;;;;;;6173371;28;20306;-68
2023/07/22 03:05:25;;;;;;;;;;;;;;;;;;6173431;28;20030;-69
2023/07/22 03:08:26;;;;;;;1.52;1.17;;;;;;;;;;6175250;28;19928;-69
2023/07/22 03:11:27;;;;;;;;;;;;;;;;;;6173560;28;20140;-70
2023/07/22 03:14:27;;;;;;;1.67;1.10;;;;;;;;;;6170913;28;19925;-68
2023/07/22 03:17:27;;;;;;;;;;;;;;;;;;6174512;28;20349;-68
2023/07/22 03:20:27;;;;;;;1.77;1.15;;;;;;;;;;6176939;28;20481;-71
2023/07/22 03:23:27;;;;;;;;;;;;;;;;;;6175305;28;20415;-68
2023/07/22 03:26:28;;;;;;;0.77;0.77;;;;;;;;;;6175784;28;19972;-69
2023/07/22 03:29:28;;;;;;;;;;;;;;;;;;6177848;28;20022;-68
2023/07/22 03:32:28;;;;;;;2.15;1.10;;;;;;;;;;6171925;28;19928;-69
2023/07/22 03:35:28;;;;;;;;;;;;;;;;;;6178373;28;20023;-67
2023/07/22 03:38:28;;;;;;;0.93;0.87;;;;;;;;;;6176414;28;19960;-67
2023/07/22 03:41:28;;;;;;;;;;;;;;;;;;6174199;28;20057;-68
2023/07/22 03:44:29;;;;;;;1.45;1.30;;;;;;;;;;6171987;28;19917;-69
2023/07/22 03:47:29;;;;;;;;;;;;;;;;;;6174937;28;20046;-69
2023/07/22 03:50:29;;;;;;;1.40;1.13;;;;;;;;;;6183161;28;19917;-69
2023/07/22 03:53:29;;;;;;;;;;;;;;;;;;6181112;28;20030;-69
2023/07/22 03:56:30;;;;;;;1.55;1.20;;;;;;;;;;6180050;28;19913;-69
2023/07/22 03:59:30;;;;;;;;;;;;;;;;;;6175853;28;20336;-66
2023/07/22 04:02:30;;;;;;;1.83;1.20;;;;;;;;;;6175094;28;19968;-68
2023/07/22 04:05:30;;;;;;;;;;;;;;;;;;6177927;28;20430;-68
2023/07/22 04:08:30;;;;;;;1.15;1.00;;;;;;;;;;6180638;28;19918;-70
2023/07/22 04:11:31;;;;;;;;;;;;;;;;;;6177017;28;20563;-68
2023/07/22 04:14:31;;;;;;;0.73;0.67;;;;;;;;;;6178657;28;20871;-69
2023/07/22 04:17:31;;;;;;;;;;;;;;;;;;6186427;28;20643;-70
2023/07/22 04:20:31;;;;;;;1.27;1.08;;;;;;;;;;6178237;28;20243;-68
2023/07/22 04:23:33;;;;;;;;;;;;;;;;;;6176336;28;20093;-67
2023/07/22 04:26:34;;;;;;;1.60;1.13;;;;;;;;;;6180871;28;19909;-68
2023/07/22 04:29:34;;;;;;;;;;;;;;;;;;6193516;28;20047;-68
2023/07/22 04:32:34;;;;;;;1.40;1.30;;;;;;;;;;6181007;28;20229;-69
2023/07/22 04:35:34;;;;;;;;;;;;;;;;;;6183794;28;20121;-68
2023/07/22 04:38:35;;;;;;;0.90;0.90;;;;;;;;;;6192880;28;20012;-67
2023/07/22 04:41:35;;;;;;;2.40;1.47;;;;;;;;;;6192824;28;20277;-69
2023/07/22 04:44:35;;;;;;;;;;;;;;;;;;6195962;28;20058;-69
2023/07/22 04:47:36;;;;;;;1.85;1.27;;;;;;;;;;6189009;28;20413;-70
2023/07/22 04:50:37;;;;;;;;;;;;;;;;;;6178604;28;20022;-69
2023/07/22 04:53:37;;;;;;;1.38;1.13;;;;;;;;;;6182526;28;19920;-71
2023/07/22 04:56:38;;;;;;;;;;;;;;;;;;6178706;28;20517;-69
2023/07/22 04:59:38;;;;;;;2.42;1.20;;;;;;;;;;6182818;28;21258;-69
2023/07/22 05:02:39;;;;;;;;;;;;;;;;;;6178236;28;20668;-68
2023/07/22 05:05:39;;;;;;;2.97;1.73;;;;;;;;;;6182633;28;20315;-70
2023/07/22 05:08:39;;;;;;;;;;;;;;;;;;6180001;28;20030;-68
2023/07/22 05:11:39;;;;;;;3.20;1.38;;;;;;;;;;6182175;28;19928;-69
2023/07/22 05:14:39;;;;;;;;;;;;;;;;;;6182726;28;20125;-69
2023/07/22 05:17:40;;;;;;;3.03;1.50;;;;;;;;;;6176363;28;20005;-70
2023/07/22 05:20:40;;;;;;;;;;;;;;;;;;6173524;28;20503;-67
2023/07/22 05:23:40;;;;;;;4.15;3.35;;;;;;;;;;6180765;28;20223;-69
2023/07/22 05:26:40;;;;;;;;;;;;;;;;;;6178968;28;20030;-69
2023/07/22 05:29:40;;;;;;;2.00;1.70;;;;;;;;;;6181267;28;20020;-68
2023/07/22 05:32:40;;;;;;;;;;;;;;;;;;6180664;28;20049;-69
2023/07/22 05:35:41;;;;;;;1.63;1.40;;;;;;;;;;6175817;28;19929;-68
2023/07/22 05:38:41;;;;;;;;;;;;;;;;;;6182442;28;20089;-67
2023/07/22 05:41:41;;;;;;;1.85;1.50;;;;;;;;;;6176906;28;19918;-68
2023/07/22 05:44:41;;;;;;;;;;;;;;;;;;6179677;28;20034;-68
2023/07/22 05:47:42;;;;;;;1.80;1.35;;;;;;;;;;6181874;28;20492;-69
2023/07/22 05:50:42;;;;;;;;;;;;;;;;;;6178421;28;20026;-68
2023/07/22 05:53:42;;;;;;;2.00;1.80;;;;;;;;;;6177715;28;19920;-65
2023/07/22 05:56:42;;;;;;;;;;;;;;;;;;6181032;28;20501;-67
2023/07/22 05:59:42;;;;;;;5.07;2.53;;;;;;;;;;6179732;28;19916;-66
2023/07/22 06:02:43;;;;;;;;;;;;;;;;;;6178714;28;20113;-68
2023/07/22 06:05:43;;;;;;;2.63;2.28;;;;;;;;;;6186016;28;19909;-66
2023/07/22 06:08:43;;;;;;;;;;;;;;;;;;6193660;28;20079;-65
2023/07/22 06:11:43;;;;;;;3.25;2.15;;;;;;;;;;6193214;28;19925;-69
2023/07/22 06:14:43;;;;;;;;;;;;;;;;;;6185799;28;20018;-66
2023/07/22 06:17:44;;;;;;;1.75;1.50;;;;;;;;;;6190708;28;19910;-67
2023/07/22 06:20:44;;;;;;;;;;;;;;;;;;6191547;28;20368;-68
2023/07/22 06:23:44;;;;;;;2.38;1.70;;;;;;;;;;6186378;28;20260;-67
2023/07/22 06:26:44;;;;;;;;;;;;;;;;;;6189445;28;20132;-68
2023/07/22 06:29:44;;;;;;;2.97;1.90;;;;;;;;;;6187256;28;20458;-69
2023/07/22 06:32:44;;;;;;;;;;;;;;;;;;6186735;28;20029;-69
2023/07/22 06:35:45;;;;;;;2.60;1.55;;;;;;;;;;6188629;28;19913;-67
2023/07/22 06:38:45;;;;;;;;;;;;;;;;;;6191865;28;20065;-67
2023/07/22 06:41:45;;;;;;;1.80;1.63;;;;;;;;;;6192802;28;19909;-68
2023/07/22 06:44:45;;;;;;;;;;;;;;;;;;6188445;28;20088;-68
2023/07/22 06:47:46;;;;;;;2.78;1.70;;;;;;;;;;6191148;28;19909;-68
2023/07/22 06:50:50;;;;;;;2.60;2.22;;;;;;;;;;6192917;28;20022;-68
2023/07/22 06:53:50;;;;;;;3.22;2.60;;;;;;;;;;6190432;28;20084;-67
2023/07/22 06:56:50;;;;;;;3.60;1.90;;;;;;;;;;6190918;28;20026;-66
2023/07/22 06:59:51;;;;;;;2.80;1.73;;;;;;;;;;6192500;28;20274;-67
2023/07/22 07:02:51;;;;;;;2.08;1.67;;;;;;;;;;6185644;28;20858;-67
2023/07/22 07:05:54;;;;;;;1.58;1.48;;;;;;;;;;6188953;28;20042;-69
2023/07/22 07:08:55;;;;;;;1.90;1.45;;;;;;;;;;6188299;28;20631;-68
2023/07/22 07:11:56;;;;;;;5.20;4.15;;;;;;;;;;6186527;28;20033;-71
2023/07/22 07:14:57;;;;;;;2.90;2.60;;;;;;;;;;6188480;28;20401;-68
2023/07/22 07:17:57;;;;;;;2.50;1.90;;;;;;;;;;6185930;28;20018;-69
2023/07/22 07:20:57;;;;;;;2.40;1.77;;;;;;;;;;6190354;28;20324;-70
2023/07/22 07:23:57;;;;;;;3.00;2.20;;;;;;;;;;6190044;28;20675;-70
2023/07/22 07:26:58;;;;;;;2.83;2.20;;;;;;;;;;6187671;28;20169;-70
2023/07/22 07:29:58;;;;;;;2.83;1.80;;;;;;;;;;6182221;28;20507;-70
2023/07/22 07:32:58;;;;;;;1.77;1.45;;;;;;;;;;6184592;28;20374;-72
2023/07/22 07:35:59;;;;;;;1.50;1.20;;;;;;;;;;6182714;28;20030;-70
2023/07/22 07:38:59;;;;;;;3.63;1.40;;;;;;;;;;6181210;28;20411;-70
2023/07/22 07:41:59;;;;;;;3.60;1.40;;;;;;;;;;6183773;28;20018;-70
2023/07/22 07:45:00;;;;;;;1.77;1.40;;;;;;;;;;6181516;28;20281;-72
2023/07/22 07:48:00;;;;;;;2.57;1.80;;;;;;;;;;6182638;28;20411;-69
2023/07/22 07:51:00;;;;;;;2.00;1.80;;;;;;;;;;6187414;28;20270;-72
2023/07/22 07:54:00;;;;;;;2.20;1.67;;;;;;;;;;6188904;28;20379;-69
2023/07/22 07:57:01;;;;;;;1.67;1.58;;;;;;;;;;6185267;28;20277;-70
2023/07/22 08:00:01;;;;;;;2.20;1.70;;;;;;;;;;6186582;28;20034;-69
2023/07/22 08:03:01;;;;;;;2.33;1.60;;;;;;;;;;6190956;28;20079;-70
2023/07/22 08:06:02;;;;;;;1.80;1.33;;;;;;;;;;6183934;28;20933;-68
2023/07/22 08:09:02;;;;;;;1.52;1.20;;;;;;;;;;6186139;28;20023;-70
2023/07/22 08:12:03;;;;;;;1.63;1.33;;;;;;;;;;6186108;28;21564;-70
2023/07/22 08:15:03;;;;;;;1.50;1.40;;;;;;;;;;6190086;28;20082;-70
2023/07/22 08:18:04;;;;;;;3.20;2.50;;;;;;;;;;6189204;28;20361;-68
2023/07/22 08:21:06;;;;;;;2.20;1.70;;;;;;;;;;6185166;28;20029;-69
2023/07/22 08:24:07;;;;;;;1.42;1.30;;;;;;;;;;6185411;28;20395;-71
2023/07/22 08:27:07;;;;;;;2.00;1.50;;;;;;;;;;6184198;28;20014;-70
2023/07/22 08:30:08;;;;;;;1.35;1.23;;;;;;;;;;6188975;28;20029;-71
2023/07/22 08:33:09;;;;;;;1.20;1.10;;;;;;;;;;6189210;28;20421;-71
2023/07/22 08:36:09;;;;;;;1.52;1.20;;;;;;;;;;6187025;28;20037;-73
2023/07/22 08:39:09;;;;;;;1.97;1.40;;;;;;;;;;6183818;28;20094;-69
2023/07/22 08:42:11;;;;;;;1.65;1.40;;;;;;;;;;6186417;28;20773;-71
2023/07/22 08:45:11;;;;;;;1.52;1.30;;;;;;;;;;6181348;28;20046;-70
2023/07/22 08:48:12;;;;;;;1.33;1.23;;;;;;;;;;6190739;28;20048;-69
2023/07/22 08:51:16;;;;;;;1.40;1.13;;;;;;;;;;6188438;28;20030;-71
2023/07/22 08:54:16;;;;;;;1.05;1.00;;;;;;;;;;6192836;28;20033;-73
2023/07/22 08:57:17;;;;;;;2.10;1.90;;;;;;;;;;6193440;28;20026;-71
2023/07/22 09:00:18;;;;;;;1.95;1.77;;;;;;;;;;6198452;28;20490;-72
2023/07/22 09:03:18;;;;;;;1.30;1.20;;;;;;;;;;6194002;28;20010;-70
2023/07/22 09:06:19;;;;;;;1.33;1.23;;;;;;;;;;6189317;28;20125;-72
2023/07/22 09:09:19;;;;;;;1.20;1.10;;;;;;;;;;6192621;28;20090;-68
2023/07/22 09:12:21;;;;;;;1.23;1.10;;;;;;;;;;6185093;28;20022;-72
2023/07/22 09:15:23;;;;;;;3.38;3.03;;;;;;;;;;6184616;28;20121;-71
2023/07/22 09:18:23;;;;;;;2.30;2.10;;;;;;;;;;6190194;28;20026;-70
2023/07/22 09:21:23;;;;;;;1.70;1.60;;;;;;;;;;6188558;28;20067;-71
2023/07/22 09:24:24;;;;;;;1.70;1.50;;;;;;;;;;6190439;28;20030;-71
2023/07/22 09:27:34;;;;;;;1.60;1.10;;;;;;;;;;6202829;28;20383;-69
2023/07/22 09:30:35;;;;;;;0.98;0.90;;;;;;;;;;6185422;28;20109;-71
2023/07/22 09:33:35;;;;;;;1.50;1.30;;;;;;;;;;6184625;28;20037;-69
2023/07/22 09:37:05;;;;;;;2.65;1.73;;;;;;;;;;6187045;28;20058;-72
2023/07/22 09:40:21;;;;;;;1.80;1.60;;;;;;;;;;6176034;28;21469;-69
2023/07/22 09:43:22;;;;;;;1.17;1.08;;;;;;;;;;6187430;28;20029;-69
2023/07/22 09:46:30;;;;;;;1.48;1.30;;;;;;;;;;6188306;28;20056;-70
2023/07/22 09:49:30;;;;;;;1.83;1.63;;;;;;;;;;6181792;28;20026;-70
2023/07/22 09:52:31;;;;;;;2.23;1.33;;;;;;;;;;6190302;28;20113;-71
2023/07/22 09:55:31;;;;;;;1.70;1.60;;;;;;;;;;6191013;28;20674;-71
2023/07/22 09:58:32;;;;;;;1.33;1.10;;;;;;;;;;5843490;28;9999897;-70
2023/07/22 10:01:33;;;;;;;1.77;1.23;;;;;;;;;;6179636;28;20018;-69
2023/07/22 10:04:34;;;;;;;2.72;1.40;;;;;;;;;;6185691;28;20556;-70
2023/07/22 10:07:35;;;;;;;1.17;1.10;;;;;;;;;;6191887;28;20462;-70
2023/07/22 10:10:37;;;;;;;1.20;1.10;;;;;;;;;;6186770;28;20379;-70
2023/07/22 10:13:38;;;;;;;1.27;1.08;;;;;;;;;;6191508;28;20029;-71
2023/07/22 10:16:38;;;;;;;1.48;1.38;;;;;;;;;;6180035;28;20404;-73
2023/07/22 10:19:38;;;;;;;1.53;1.13;;;;;;;;;;6189181;28;20029;-73
2023/07/22 10:22:39;;;;;;;1.27;1.10;;;;;;;;;;6181336;28;20277;-73
2023/07/22 10:25:40;;;;;;;1.23;0.73;;;;;;;;;;6184223;28;20087;-72
2023/07/22 10:28:42;;;;;;;1.00;0.90;;;;;;;;;;6184404;28;20055;-73
2023/07/22 10:31:42;;;;;;;1.70;1.33;;;;;;;;;;6188684;28;20026;-71
2023/07/22 10:34:42;;;;;;;2.10;1.90;;;;;;;;;;6190790;28;20081;-71
2023/07/22 10:37:44;;;;;;;1.77;1.67;;;;;;;;;;6192759;28;20275;-73
2023/07/22 10:40:54;;;;;;;1.63;1.30;;;;;;;;;;6189034;28;20030;-72
2023/07/22 10:43:55;;;;;;;1.10;1.10;;;;;;;;;;6185710;28;20383;-72
2023/07/22 10:46:56;;;;;;;1.75;1.40;;;;;;;;;;6187052;28;20831;-73
2023/07/22 10:50:04;;;;;;;1.35;1.25;;;;;;;;;;6182446;28;20018;-71
2023/07/22 10:53:04;;;;;;;1.17;1.08;;;;;;;;;;6183637;28;20025;-72
2023/07/22 10:56:17;;;;;;;1.17;1.00;;;;;;;;;;6183368;28;20077;-72
2023/07/22 10:59:25;;;;;;;1.20;0.98;;;;;;;;;;6174781;28;20025;-71
2023/07/22 11:02:27;;;;;;;1.55;1.20;;;;;;;;;;6186659;28;20014;-71
2023/07/22 11:05:46;;;;;;;1.48;1.30;;;;;;;;;;6200808;28;20014;-71
2023/07/22 11:08:47;;;;;;;2.33;1.25;;;;;;;;;;6182924;28;20064;-72
2023/07/22 11:11:48;;;;;;;1.40;1.30;;;;;;;;;;6186630;28;20019;-72
2023/07/22 11:14:49;;;;;;;1.20;1.10;;;;;;;;;;6190176;28;20022;-72
2023/07/22 11:17:50;;;;;;;1.52;1.38;;;;;;;;;;6187512;28;20034;-74
2023/07/22 11:20:52;;;;;;;1.30;1.20;;;;;;;;;;6185227;28;20144;-74
2023/07/22 11:23:53;;;;;;;1.30;1.20;;;;;;;;;;6183581;28;20022;-75
2023/07/22 11:26:54;;;;;;;3.07;1.20;;;;;;;;;;6183079;28;20554;-72
2023/07/22 11:29:56;;;;;;;1.75;1.15;;;;;;;;;;6182991;28;20026;-70
2023/07/22 11:33:00;;;;;;;1.38;1.27;;;;;;;;;;6183599;28;20490;-70
2023/07/22 11:36:00;;;;;;;1.58;1.48;;;;;;;;;;6182077;28;20034;-69
2023/07/22 11:39:01;;;;;;;1.30;1.20;;;;;;;;;;6183642;28;20057;-68
2023/07/22 11:42:03;;;;;;;1.45;1.35;;;;;;;;;;6186015;28;20050;-70
2023/07/22 11:45:05;;;;;;;1.40;1.30;;;;;;;;;;6182903;28;20064;-69
2023/07/22 11:48:09;;;;;;;1.48;1.38;;;;;;;;;;6179546;28;20392;-69
2023/07/22 11:51:09;;;;;;;1.60;1.50;;;;;;;;;;6183756;28;20105;-69
2023/07/22 11:54:10;;;;;;;1.50;1.40;;;;;;;;;;6178020;28;20022;-70
2023/07/22 11:57:10;;;;;;;1.38;1.27;;;;;;;;;;6181767;28;20081;-69
2023/07/22 12:00:10;;;;;;;1.20;1.10;;;;;;;;;;6183588;28;20150;-69
2023/07/22 12:03:14;;;;;;;2.08;1.25;;;;;;;;;;6182094;28;20018;-68
2023/07/22 12:06:15;;;;;;;1.45;1.35;;;;;;;;;;5838492;28;10000174;-68
2023/07/22 12:09:15;;;;;;;1.50;1.40;;;;;;;;;;6182404;28;20056;-70
2023/07/22 12:12:15;;;;;;;2.20;2.00;;;;;;;;;;6188291;28;20022;-70
2023/07/22 12:15:17;;;;;;;2.03;1.40;;;;;;;;;;6188264;28;20029;-69
2023/07/22 12:18:17;;;;;;;1.40;1.30;;;;;;;;;;6190220;28;20038;-70
2023/07/22 12:21:17;;;;;;;1.33;1.23;;;;;;;;;;6190301;28;20068;-69
2023/07/22 12:24:18;;;;;;;1.50;1.40;;;;;;;;;;6188950;28;20027;-69
2023/07/22 12:27:18;;;;;;;1.60;1.40;;;;;;;;;;6204136;28;20132;-69
2023/07/22 12:30:19;;;;;;;1.50;1.40;;;;;;;;;;6199113;28;20237;-67
2023/07/22 12:33:21;;;;;;;1.10;1.10;;;;;;;;;;6196936;28;20058;-70
2023/07/22 12:36:21;;;;;;;1.40;1.30;;;;;;;;;;6200246;28;20053;-69
2023/07/22 12:39:21;;;;;;;1.50;1.40;;;;;;;;;;6202844;28;20018;-69
2023/07/22 12:42:21;;;;;;;1.30;1.20;;;;;;;;;;6193343;28;20502;-68
2023/07/22 12:45:22;;;;;;;1.33;1.27;;;;;;;;;;6193248;28;20025;-70
2023/07/22 12:48:24;;;;;;;1.50;1.40;;;;;;;;;;6193240;28;20014;-70
2023/07/22 12:51:24;;;;;;;1.42;1.33;;;;;;;;;;6192815;28;20030;-69
2023/07/22 12:54:24;;;;;;;1.53;1.43;;;;;;;;;;6193512;28;20505;-69
2023/07/22 12:57:24;;;;;;;1.40;1.30;;;;;;;;;;6192302;28;20030;-70
2023/07/22 13:00:25;;;;;;;1.47;1.37;;;;;;;;;;6186538;28;20128;-69
2023/07/22 13:03:25;;;;;;;1.47;1.37;;;;;;;;;;6190273;28;20022;-70
2023/07/22 13:06:26;;;;;;;1.40;1.30;;;;;;;;;;6190976;28;20022;-70
2023/07/22 13:09:26;;;;;;;1.20;1.10;;;;;;;;;;6191316;28;20026;-69
2023/07/22 13:12:26;;;;;;;1.00;1.00;;;;;;;;;;6193691;28;20022;-69
2023/07/22 13:15:27;;;;;;;2.03;1.92;;;;;;;;;;6193403;28;20494;-70
2023/07/22 13:18:27;;;;;;;2.07;1.97;;;;;;;;;;6190932;28;20039;-71
2023/07/22 13:21:27;;;;;;;1.77;1.67;;;;;;;;;;6190602;28;20096;-70
2023/07/22 13:24:28;;;;;;;1.60;1.50;;;;;;;;;;6189676;28;20438;-70
2023/07/22 13:27:28;;;;;;;1.63;1.52;;;;;;;;;;6193366;28;20133;-70
2023/07/22 13:30:28;;;;;;;1.53;1.43;;;;;;;;;;6192198;28;20033;-70
2023/07/22 13:33:29;;;;;;;1.43;1.33;;;;;;;;;;6189580;28;20048;-70
2023/07/22 13:36:29;;;;;;;1.37;1.23;;;;;;;;;;6189517;28;20031;-69
2023/07/22 13:39:29;;;;;;;1.40;1.23;;;;;;;;;;6193213;28;20022;-70
2023/07/22 13:42:30;;;;;;;3.03;2.83;;;;;;;;;;6193191;28;20018;-69
2023/07/22 13:45:30;;;;;;;2.03;1.90;;;;;;;;;;6190243;28;20308;-70
2023/07/22 13:48:30;;;;;;;1.50;1.40;;;;;;;;;;6191189;28;20034;-70
2023/07/22 13:51:30;;;;;;;1.40;1.30;;;;;;;;;;6191160;28;20030;-68
2023/07/22 13:54:31;;;;;;;1.43;1.33;;;;;;;;;;6191615;28;20053;-70
2023/07/22 13:57:31;;;;;;;1.30;1.20;;;;;;;;;;6192237;28;20549;-69
2023/07/22 14:00:31;;;;;;;1.33;1.23;;;;;;;;;;6186650;28;20037;-70
2023/07/22 14:03:31;;;;;;;1.50;1.40;;;;;;;;;;6190943;28;20030;-70
2023/07/22 14:06:32;;;;;;;1.23;1.13;;;;;;;;;;6189469;28;20030;-69
2023/07/22 14:09:32;;;;;;;1.35;1.25;;;;;;;;;;6192385;28;20033;-70
2023/07/22 14:12:32;;;;;;;1.87;1.30;;;;;;;;;;6191392;28;20109;-70
2023/07/22 14:15:33;;;;;;;1.63;1.40;;;;;;;;;;6191072;28;20018;-68
2023/07/22 14:18:33;;;;;;;2.22;1.20;;;;;;;;;;6192158;28;20164;-69
2023/07/22 14:21:33;;;;;;;1.80;1.70;;;;;;;;;;6188881;28;20495;-70
2023/07/22 14:24:33;;;;;;;2.47;2.27;;;;;;;;;;6189753;28;20451;-68
2023/07/22 14:27:34;;;;;;;1.70;1.60;;;;;;;;;;6188133;28;20469;-69
2023/07/22 14:30:35;;;;;;;1.88;1.70;;;;;;;;;;6190648;28;20092;-69
2023/07/22 14:33:35;;;;;;;1.70;1.60;;;;;;;;;;6191530;28;20018;-69
2023/07/22 14:36:35;;;;;;;1.90;1.80;;;;;;;;;;6191136;28;20029;-67
2023/07/22 14:39:35;;;;;;;2.27;2.07;;;;;;;;;;6190208;28;20481;-68
2023/07/22 14:42:36;;;;;;;1.70;1.60;;;;;;;;;;6190816;28;20550;-70
2023/07/22 14:45:36;;;;;;;1.87;1.67;;;;;;;;;;6189330;28;20081;-70
2023/07/22 14:48:36;;;;;;;1.70;1.60;;;;;;;;;;6191051;28;20026;-70
2023/07/22 14:51:36;;;;;;;2.10;1.90;;;;;;;;;;6190259;28;20034;-70
2023/07/22 14:54:37;;;;;;;1.73;1.63;;;;;;;;;;6188833;28;20472;-70
2023/07/22 14:57:37;;;;;;;2.10;2.00;;;;;;;;;;6189950;28;20041;-71
2023/07/22 15:00:37;;;;;;;1.70;1.60;;;;;;;;;;6187215;28;20026;-70
2023/07/22 15:03:38;;;;;;;1.63;1.47;;;;;;;;;;6189570;28;20348;-70
2023/07/22 15:06:39;;;;;;;2.03;1.92;;;;;;;;;;6190489;28;20145;-68
2023/07/22 15:09:39;;;;;;;1.90;1.80;;;;;;;;;;6190791;28;20046;-70
2023/07/22 15:12:39;;;;;;;2.30;2.10;;;;;;;;;;6188075;28;20030;-71
2023/07/22 15:15:39;;;;;;;2.27;2.07;;;;;;;;;;6190821;28;20059;-68
2023/07/22 15:18:40;;;;;;;3.07;2.00;;;;;;;;;;6190597;28;20084;-69
2023/07/22 15:21:40;;;;;;;1.92;1.83;;;;;;;;;;6203767;28;20026;-70
2023/07/22 15:24:40;;;;;;;1.83;1.73;;;;;;;;;;6188971;28;20030;-71
2023/07/22 15:27:42;;;;;;;3.97;3.67;;;;;;;;;;6189946;28;20026;-69
2023/07/22 15:30:42;;;;;;;2.85;2.65;;;;;;;;;;6188114;28;20029;-70
2023/07/22 15:33:42;;;;;;;2.60;2.40;;;;;;;;;;6188590;28;20026;-69
2023/07/22 15:36:42;;;;;;;2.97;1.90;;;;;;;;;;6184115;28;20133;-70
2023/07/22 15:39:43;;;;;;;3.47;1.93;;;;;;;;;;6190256;28;20278;-70
2023/07/22 15:42:43;;;;;;;1.80;1.70;;;;;;;;;;6189595;28;20551;-69
2023/07/22 15:45:43;;;;;;;1.80;1.70;;;;;;;;;;6190124;28;20037;-71
2023/07/22 15:48:43;;;;;;;1.83;1.50;;;;;;;;;;6186452;28;20030;-71
2023/07/22 15:51:44;;;;;;;1.80;1.57;;;;;;;;;;6189701;28;20108;-70
2023/07/22 15:54:44;;;;;;;2.08;1.70;;;;;;;;;;6205038;28;20030;-70
2023/07/22 15:57:47;;;;;;;2.03;1.60;;;;;;;;;;6189610;28;20031;-69
2023/07/22 16:00:47;;;;;;;2.30;1.70;;;;;;;;;;6186690;28;20147;-71
2023/07/22 16:03:48;;;;;;;2.03;1.80;;;;;;;;;;6191378;28;20030;-69
2023/07/22 16:06:48;;;;;;;2.50;1.90;;;;;;;;;;6196423;28;20491;-69
2023/07/22 16:09:48;;;;;;;2.50;2.27;;;;;;;;;;6197952;28;20032;-70
2023/07/22 16:12:48;;;;;;;3.00;2.17;;;;;;;;;;6195130;28;20426;-71
2023/07/22 16:15:49;;;;;;;3.47;2.03;;;;;;;;;;6196934;28;20504;-70
2023/07/22 16:18:49;;;;;;;2.22;1.85;;;;;;;;;;6197618;28;20049;-70
2023/07/22 16:21:49;;;;;;;2.40;1.60;;;;;;;;;;6194689;28;20034;-69
2023/07/22 16:24:49;;;;;;;2.37;2.03;;;;;;;;;;6197559;28;20331;-69
2023/07/22 16:27:49;;;;;;;2.60;2.37;;;;;;;;;;6196960;28;20398;-69
2023/07/22 16:30:50;;;;;;;3.80;2.23;;;;;;;;;;6198339;28;20079;-70
2023/07/22 16:33:50;;;;;;;3.23;1.90;;;;;;;;;;6196609;28;20491;-69
2023/07/22 16:36:50;;;;;;;1.83;1.70;;;;;;;;;;6195308;28;20372;-69
2023/07/22 16:39:53;;;;;;;2.38;1.98;;;;;;;;;;6192577;28;20014;-70
2023/07/22 16:42:53;;;;;;;1.48;1.38;;;;;;;;;;6196507;28;20790;-68
2023/07/22 16:45:54;;;;;;;2.20;1.63;;;;;;;;;;6193136;28;20044;-68
2023/07/22 16:48:54;;;;;;;3.07;1.70;;;;;;;;;;6195218;28;20037;-69
2023/07/22 16:51:54;;;;;;;1.80;1.60;;;;;;;;;;6195517;28;20281;-69
2023/07/22 16:54:54;;;;;;;2.30;1.73;;;;;;;;;;6194926;28;20010;-69
2023/07/22 16:57:55;;;;;;;1.83;1.30;;;;;;;;;;6197318;28;20065;-68
2023/07/22 17:00:55;;;;;;;2.03;1.55;;;;;;;;;;6192759;28;20395;-69
2023/07/22 17:03:56;;;;;;;1.35;1.25;;;;;;;;;;6193651;28;20105;-68
2023/07/22 17:06:56;;;;;;;2.07;1.63;;;;;;;;;;6194903;28;20049;-68
2023/07/22 17:09:56;;;;;;;1.90;1.47;;;;;;;;;;6194588;28;20277;-67
2023/07/22 17:12:56;;;;;;;1.70;1.40;;;;;;;;;;6210880;28;20081;-68
2023/07/22 17:15:56;;;;;;;1.90;1.40;;;;;;;;;;6194849;28;20758;-68
2023/07/22 17:18:57;;;;;;;1.80;1.33;;;;;;;;;;6196600;28;20588;-68
2023/07/22 17:21:57;;;;;;;1.30;1.20;;;;;;;;;;6191106;28;20018;-68
2023/07/22 17:24:57;;;;;;;1.70;1.50;;;;;;;;;;6189548;28;20037;-69
2023/07/22 17:27:57;;;;;;;2.17;1.57;;;;;;;;;;6191572;28;20030;-69
2023/07/22 17:30:59;;;;;;;2.30;2.10;;;;;;;;;;6209204;28;20448;-68
2023/07/22 17:33:59;;;;;;;2.25;2.05;;;;;;;;;;6194129;28;20073;-68
2023/07/22 17:36:59;;;;;;;2.10;1.90;;;;;;;;;;6190682;28;20053;-68
2023/07/22 17:39:59;;;;;;;3.50;3.13;;;;;;;;;;6195058;28;20273;-68
2023/07/22 17:42:59;;;;;;;67.53;60.43;;;;;;;;;;6193698;28;20288;-69
2023/07/22 17:46:00;;;;;;;21.60;19.33;;;;;;;;;;6191375;28;20499;-68
2023/07/22 17:49:00;;;;;;;11.90;10.70;;;;;;;;;;6191464;28;20778;-69
2023/07/22 17:52:00;;;;;;;5.40;4.90;;;;;;;;;;6194542;28;20116;-67
2023/07/22 17:55:00;;;;;;;3.88;3.33;;;;;;;;;;6189353;28;20487;-68
2023/07/22 17:58:01;;;;;;;5.80;5.25;;;;;;;;;;6193271;28;20026;-67
2023/07/22 18:01:02;;;;;;;9.00;8.10;;;;;;;;;;6195384;28;20487;-69
2023/07/22 18:04:02;;;;;;;3.72;3.42;;;;;;;;;;6193907;28;20026;-67
2023/07/22 18:07:03;;;;;;;3.00;2.33;;;;;;;;;;6194843;28;20505;-66
2023/07/22 18:10:04;;;;;;;6.30;4.07;;;;;;;;;;6195220;28;20376;-68
2023/07/22 18:13:04;;;;;;;8.63;3.85;;;;;;;;;;6195132;28;20022;-68
2023/07/22 18:16:04;;;;;;;4.97;3.53;;;;;;;;;;6192456;28;20037;-68
2023/07/22 18:19:05;;;;;;;4.13;2.97;;;;;;;;;;6194259;28;20112;-67
2023/07/22 18:22:05;;;;;;;2.03;1.83;;;;;;;;;;6194922;28;20027;-69
2023/07/22 18:25:06;;;;;;;2.00;1.80;;;;;;;;;;6193984;28;20034;-68
2023/07/22 18:28:06;;;;;;;1.90;1.70;;;;;;;;;;6193759;28;20034;-68